createdAt,value
2023-03-04T00:00:34.881Z,12.37
2023-03-04T00:03:02.758Z,12.80
2023-03-04T00:05:31.240Z,12.33
2023-03-04T00:07:59.065Z,12.27
2023-03-04T00:10:26.924Z,12.90
2023-03-04T00:12:54.653Z,12.67
2023-03-04T00:15:22.466Z,13.80
2023-03-04T00:17:51.566Z,14.03
2023-03-04T00:20:19.423Z,13.93
2023-03-04T00:22:48.089Z,12.97
2023-03-04T00:25:16.083Z,13.00
2023-03-04T00:27:43.874Z,13.43
2023-03-04T00:30:12.513Z,12.97
2023-03-04T00:32:40.598Z,13.10
2023-03-04T00:35:10.280Z,12.07
2023-03-04T00:37:38.086Z,12.30
2023-03-04T00:51:14.514Z,11.43
2023-03-04T00:53:42.287Z,11.97
2023-03-04T00:56:10.096Z,11.37
2023-03-04T00:58:39.371Z,12.33
2023-03-04T01:01:07.241Z,11.73
2023-03-04T01:03:35.073Z,12.20
2023-03-04T01:06:02.878Z,12.87
2023-03-04T01:08:32.134Z,12.80
2023-03-04T01:11:00.043Z,12.87
2023-03-04T01:13:27.777Z,12.87
2023-03-04T01:15:55.962Z,12.83
2023-03-04T01:18:23.832Z,12.40
2023-03-04T01:20:51.935Z,12.37
2023-03-04T01:23:19.743Z,12.03
2023-03-04T01:25:49.074Z,12.30
2023-03-04T01:28:16.886Z,12.47
2023-03-04T01:30:44.714Z,13.87
2023-03-04T01:33:12.498Z,13.20
2023-03-04T01:35:40.389Z,12.97
2023-03-04T01:38:08.222Z,13.67
2023-03-04T01:40:36.030Z,12.93
2023-03-04T01:43:05.366Z,14.20
2023-03-04T01:45:33.625Z,14.77
2023-03-04T01:48:01.562Z,13.37
2023-03-04T01:50:32.225Z,13.60
2023-03-04T01:53:00.121Z,13.27
2023-03-04T01:55:28.248Z,12.77
2023-03-04T01:57:57.342Z,12.30
2023-03-04T02:00:30.812Z,12.67
2023-03-04T02:03:00.839Z,12.83
2023-03-04T02:05:29.202Z,12.53
2023-03-04T02:07:57.593Z,12.23
2023-03-04T02:10:25.714Z,12.37
2023-03-04T02:12:53.917Z,11.10
2023-03-04T02:15:22.045Z,11.40
2023-03-04T02:17:51.338Z,11.57
2023-03-04T02:20:29.289Z,11.27
2023-03-04T02:23:03.104Z,10.93
2023-03-04T02:25:35.087Z,10.87
2023-03-04T02:28:04.389Z,11.23
2023-03-04T02:30:32.411Z,10.80
2023-03-04T02:33:00.380Z,10.90
2023-03-04T02:35:28.366Z,11.40
2023-03-04T02:37:56.131Z,10.90
2023-03-04T02:40:27.674Z,10.57
2023-03-04T02:42:55.588Z,11.30
2023-03-04T02:45:38.050Z,10.87
2023-03-04T02:48:06.600Z,10.73
2023-03-04T02:50:37.625Z,11.00
2023-03-04T02:53:05.717Z,10.37
2023-03-04T02:55:33.738Z,9.87
2023-03-04T02:58:01.461Z,9.43
2023-03-04T03:00:29.705Z,10.27
2023-03-04T03:02:59.019Z,10.10
2023-03-04T03:05:28.498Z,10.07
2023-03-04T03:07:56.237Z,12.10
2023-03-04T03:10:24.252Z,13.03
2023-03-04T03:12:52.072Z,11.93
2023-03-04T03:15:19.888Z,11.13
2023-03-04T03:17:48.216Z,11.23
2023-03-04T03:20:18.289Z,12.10
2023-03-04T03:22:46.078Z,11.80
2023-03-04T03:25:15.067Z,12.43
2023-03-04T03:27:43.058Z,11.43
2023-03-04T03:30:13.185Z,11.97
2023-03-04T03:32:41.081Z,11.40
2023-03-04T03:35:09.712Z,11.57
2023-03-04T03:37:38.867Z,11.57
2023-03-04T03:40:07.701Z,10.83
2023-03-04T03:42:35.443Z,11.07
2023-03-04T03:45:03.279Z,11.43
2023-03-04T03:47:30.986Z,9.87
2023-03-04T03:49:58.806Z,10.10
2023-03-04T03:52:26.567Z,11.03
2023-03-04T03:54:55.682Z,10.33
2023-03-04T03:57:23.459Z,10.00
2023-03-04T03:59:51.165Z,10.77
2023-03-04T04:02:19.022Z,11.07
2023-03-04T04:04:46.836Z,10.37
2023-03-04T04:07:14.646Z,10.43
2023-03-04T04:09:42.488Z,10.53
2023-03-04T04:12:12.828Z,10.03
2023-03-04T04:14:40.632Z,9.67
2023-03-04T04:17:08.447Z,9.30
2023-03-04T04:19:36.213Z,9.70
2023-03-04T04:22:04.501Z,10.03
2023-03-04T04:24:32.278Z,9.43
2023-03-04T04:27:00.070Z,9.23
2023-03-04T04:29:29.199Z,9.13
2023-03-04T04:31:57.050Z,8.67
2023-03-04T04:34:24.827Z,8.27
2023-03-04T04:36:53.875Z,8.47
2023-03-04T04:39:21.654Z,9.10
2023-03-04T04:41:49.695Z,8.87
2023-03-04T04:44:17.512Z,8.97
2023-03-04T04:46:46.658Z,9.67
2023-03-04T04:49:14.452Z,9.33
2023-03-04T04:51:42.268Z,9.73
2023-03-04T04:54:15.110Z,9.17
2023-03-04T04:56:42.826Z,9.37
2023-03-04T04:59:10.641Z,10.07
2023-03-04T05:01:38.397Z,9.53
2023-03-04T05:04:07.638Z,9.50
2023-03-04T05:06:35.446Z,10.20
2023-03-04T05:09:04.429Z,9.30
2023-03-04T05:11:32.134Z,9.30
2023-03-04T05:14:00.055Z,9.13
2023-03-04T05:16:27.899Z,8.97
2023-03-04T05:18:55.748Z,8.80
2023-03-04T05:21:24.885Z,9.73
2023-03-04T05:23:52.694Z,8.87
2023-03-04T05:26:20.807Z,9.10
2023-03-04T05:28:48.845Z,8.77
2023-03-04T05:31:17.839Z,8.70
2023-03-04T05:33:48.051Z,9.17
2023-03-04T05:36:15.870Z,9.57
2023-03-04T05:38:45.001Z,8.50
2023-03-04T05:41:12.766Z,8.43
2023-03-04T05:43:42.885Z,8.60
2023-03-04T05:46:15.692Z,7.63
2023-03-04T05:48:43.865Z,8.63
2023-03-04T05:51:11.939Z,7.57
2023-03-04T05:53:40.220Z,7.30
2023-03-04T05:56:10.769Z,8.17
2023-03-04T05:58:38.799Z,7.30
2023-03-04T06:01:07.256Z,7.30
2023-03-04T06:03:35.336Z,7.40
2023-03-04T06:06:03.476Z,7.03
2023-03-04T06:08:31.264Z,7.23
2023-03-04T06:11:00.032Z,7.63
2023-03-04T06:13:29.241Z,7.20
2023-03-04T06:15:58.040Z,7.50
2023-03-04T06:18:26.727Z,7.53
2023-03-04T06:20:57.625Z,6.20
2023-03-04T06:23:25.488Z,7.00
2023-03-04T06:25:54.796Z,6.90
2023-03-04T06:28:23.196Z,7.40
2023-03-04T06:30:54.326Z,8.27
2023-03-04T06:33:22.465Z,6.80
2023-03-04T06:35:50.352Z,7.57
2023-03-04T06:38:19.797Z,7.50
2023-03-04T06:40:47.564Z,7.30
2023-03-04T06:43:15.312Z,7.40
2023-03-04T06:45:43.066Z,7.50
2023-03-04T06:48:12.296Z,7.87
2023-03-04T06:50:41.394Z,6.93
2023-03-04T06:53:09.324Z,6.83
2023-03-04T06:55:37.114Z,7.33
2023-03-04T06:58:04.970Z,7.57
2023-03-04T07:00:32.674Z,7.57
2023-03-04T07:03:01.057Z,8.43
2023-03-04T07:05:30.242Z,6.80
2023-03-04T07:07:58.047Z,7.00
2023-03-04T07:10:25.791Z,7.33
2023-03-04T07:12:53.577Z,7.20
2023-03-04T07:15:22.827Z,6.87
2023-03-04T07:17:50.657Z,6.93
2023-03-04T07:20:18.482Z,6.73
2023-03-04T07:22:47.797Z,7.03
2023-03-04T07:25:15.786Z,6.87
2023-03-04T07:27:43.560Z,6.43
2023-03-04T07:30:12.595Z,6.67
2023-03-04T07:32:40.342Z,5.93
2023-03-04T07:35:08.969Z,6.03
2023-03-04T07:37:36.956Z,6.00
2023-03-04T07:40:08.133Z,7.47
2023-03-04T07:42:36.002Z,6.93
2023-03-04T07:45:03.844Z,7.10
2023-03-04T07:47:31.584Z,7.10
2023-03-04T07:49:59.284Z,7.77
2023-03-04T07:52:27.151Z,7.70
2023-03-04T07:54:54.911Z,7.80
2023-03-04T07:57:24.105Z,7.00
2023-03-04T07:59:51.870Z,7.70
2023-03-04T08:02:19.756Z,6.90
2023-03-04T08:04:47.567Z,7.67
2023-03-04T08:07:15.396Z,8.13
2023-03-04T08:09:43.273Z,8.43
2023-03-04T08:12:11.105Z,7.90
2023-03-04T08:14:40.182Z,7.30
2023-03-04T08:17:08.698Z,7.57
2023-03-04T08:19:37.728Z,7.60
2023-03-04T08:22:05.434Z,8.33
2023-03-04T08:24:33.468Z,7.60
2023-03-04T08:27:01.191Z,8.43
2023-03-04T08:29:29.174Z,8.23
2023-03-04T08:31:58.536Z,7.50
2023-03-04T08:34:28.161Z,7.17
2023-03-04T08:36:56.158Z,7.63
2023-03-04T08:39:23.955Z,7.17
2023-03-04T08:41:51.668Z,7.93
2023-03-04T08:44:22.294Z,8.00
2023-03-04T08:46:49.975Z,7.67
2023-03-04T08:49:19.229Z,8.30
2023-03-04T08:51:47.030Z,8.00
2023-03-04T08:54:14.843Z,7.87
2023-03-04T08:56:42.880Z,8.27
2023-03-04T08:59:10.685Z,8.60
2023-03-04T09:01:38.640Z,8.73
2023-03-04T09:04:06.639Z,8.17
2023-03-04T09:06:35.694Z,8.33
2023-03-04T09:09:05.723Z,7.97
2023-03-04T09:11:33.444Z,7.50
2023-03-04T09:14:01.323Z,8.17
2023-03-04T09:16:29.264Z,8.40
2023-03-04T09:18:57.121Z,8.90
2023-03-04T09:21:24.896Z,9.33
2023-03-04T09:23:54.344Z,9.47
2023-03-04T09:26:24.422Z,10.10
2023-03-04T09:28:52.937Z,10.43
2023-03-04T09:34:35.255Z,9.70
2023-03-04T09:51:16.636Z,8.73
2023-03-04T09:53:49.619Z,8.77
2023-03-04T09:56:17.617Z,9.50
2023-03-04T09:58:54.057Z,10.33
2023-03-04T10:01:25.503Z,10.60
2023-03-04T10:03:56.803Z,10.63
2023-03-04T10:06:26.051Z,10.57
2023-03-04T10:08:56.689Z,10.57
2023-03-04T10:11:27.235Z,11.60
2023-03-04T10:14:02.948Z,11.10
2023-03-04T10:16:34.825Z,11.53
2023-03-04T10:19:15.991Z,11.93
2023-03-04T10:21:47.883Z,10.33
2023-03-04T10:24:18.061Z,11.27
2023-03-04T10:26:48.085Z,11.80
2023-03-04T10:29:17.761Z,10.60
2023-03-04T10:31:46.205Z,10.80
2023-03-04T10:34:15.224Z,10.67
2023-03-04T10:36:55.913Z,10.93
2023-03-04T10:39:27.864Z,10.83
2023-03-04T10:41:59.559Z,10.57
2023-03-04T10:44:29.285Z,9.77
2023-03-04T10:46:58.687Z,9.57
2023-03-04T10:49:28.034Z,9.73
2023-03-04T10:52:03.532Z,9.77
2023-03-04T10:54:32.925Z,9.83
2023-03-04T10:57:02.392Z,9.13
2023-03-04T10:59:44.385Z,8.73
2023-03-04T11:02:24.014Z,9.53
2023-03-04T11:04:54.303Z,9.80
2023-03-04T11:07:24.793Z,9.50
2023-03-04T11:09:57.264Z,8.93
2023-03-04T11:29:26.303Z,7.27
2023-03-04T11:31:56.806Z,7.30
2023-03-04T11:34:33.795Z,6.73
2023-03-04T11:37:05.142Z,6.33
2023-03-04T11:39:36.140Z,7.17
2023-03-04T11:42:07.023Z,7.50
2023-03-04T11:44:37.112Z,7.40
2023-03-04T11:47:12.834Z,6.50
2023-03-04T11:50:22.219Z,7.03
2023-03-04T11:53:05.761Z,7.50
2023-03-04T12:09:38.417Z,7.20
2023-03-04T12:12:23.199Z,8.73
2023-03-04T12:14:59.313Z,8.10
2023-03-04T12:17:48.252Z,7.80
2023-03-04T12:20:36.017Z,7.50
2023-03-04T12:23:12.234Z,7.10
2023-03-04T12:25:46.776Z,6.67
2023-03-04T12:28:27.793Z,7.53
2023-03-04T12:31:18.305Z,6.50
2023-03-04T12:33:56.304Z,6.03
2023-03-04T12:36:30.659Z,6.80
2023-03-04T12:39:01.969Z,6.27
2023-03-04T12:41:42.876Z,6.73
2023-03-04T12:44:21.106Z,7.13
2023-03-04T12:47:21.208Z,7.37
2023-03-04T12:50:18.464Z,6.33
2023-03-04T12:52:52.965Z,6.97
2023-03-04T12:55:26.194Z,6.67
2023-03-04T12:57:55.906Z,7.07
2023-03-04T13:00:29.876Z,6.57
2023-03-04T13:03:07.822Z,6.90
2023-03-04T13:05:46.241Z,6.60
2023-03-04T13:08:26.035Z,5.90
2023-03-04T13:10:53.940Z,6.37
2023-03-04T13:13:43.252Z,5.97
2023-03-04T13:16:32.584Z,6.00
2023-03-04T13:19:00.697Z,5.53
2023-03-04T13:21:29.481Z,5.93
2023-03-04T13:23:57.560Z,6.10
2023-03-04T13:26:30.517Z,5.83
2023-03-04T13:29:37.081Z,6.57
2023-03-04T13:32:11.710Z,6.27
2023-03-04T13:34:45.629Z,6.40
2023-03-04T13:37:31.564Z,5.93
2023-03-04T13:40:34.353Z,6.20
2023-03-04T13:43:22.443Z,6.10
2023-03-04T13:45:51.526Z,6.33
2023-03-04T13:48:30.196Z,6.93
2023-03-04T13:50:59.038Z,6.50
2023-03-04T13:53:45.201Z,6.30
2023-03-04T13:56:27.029Z,5.40
2023-03-04T13:59:05.677Z,5.40
2023-03-04T14:01:36.360Z,5.30
2023-03-04T14:04:14.976Z,5.60
2023-03-04T14:06:44.369Z,5.90
2023-03-04T14:09:14.617Z,5.30
2023-03-04T14:11:42.961Z,5.07
2023-03-04T14:14:13.692Z,5.67
2023-03-04T14:16:50.665Z,5.40
2023-03-04T14:19:24.466Z,4.80
2023-03-04T14:21:52.320Z,5.17
2023-03-04T14:24:21.498Z,5.20
2023-03-04T14:26:50.880Z,4.60
2023-03-04T14:29:23.588Z,4.57
2023-03-04T14:31:53.346Z,4.13
2023-03-04T14:34:26.163Z,4.23
2023-03-04T14:36:55.260Z,4.33
2023-03-04T14:39:35.508Z,4.13
2023-03-04T14:42:05.991Z,4.37
2023-03-04T14:44:37.827Z,3.57
2023-03-04T14:47:14.317Z,3.60
2023-03-04T15:00:24.503Z,2.87
2023-03-04T15:02:53.673Z,3.33
2023-03-04T15:05:26.371Z,3.90
2023-03-04T15:07:56.687Z,4.33
2023-03-04T15:10:26.043Z,4.43
2023-03-04T15:12:54.936Z,4.30
2023-03-04T15:15:37.407Z,4.90
2023-03-04T15:18:14.434Z,4.70
2023-03-04T15:20:42.520Z,4.30
2023-03-04T15:23:14.702Z,4.93
2023-03-04T15:25:42.473Z,4.20
2023-03-04T15:28:18.278Z,4.73
2023-03-04T15:30:47.533Z,4.10
2023-03-04T15:33:15.815Z,4.40
2023-03-04T15:35:49.449Z,4.33
2023-03-04T15:38:17.310Z,4.03
2023-03-04T15:40:45.204Z,4.13
2023-03-04T15:43:15.601Z,3.70
2023-03-04T15:45:43.974Z,4.30
2023-03-04T15:48:14.826Z,4.60
2023-03-04T15:50:44.954Z,4.17
2023-03-04T15:53:17.316Z,4.57
2023-03-04T15:55:46.470Z,4.30
2023-03-04T15:58:14.684Z,4.40
2023-03-04T16:00:43.554Z,3.70
2023-03-04T16:03:19.256Z,3.57
2023-03-04T16:05:48.614Z,3.43
2023-03-04T16:08:18.546Z,3.63
2023-03-04T16:10:46.436Z,3.20
2023-03-04T16:13:15.654Z,3.77
2023-03-04T16:15:44.201Z,4.13
2023-03-04T16:18:16.516Z,3.83
2023-03-04T16:20:46.047Z,4.30
2023-03-04T16:23:16.531Z,4.43
2023-03-04T16:25:45.086Z,4.87
2023-03-04T16:28:13.711Z,5.57
2023-03-04T16:30:42.106Z,6.40
2023-03-04T16:33:11.386Z,7.57
2023-03-04T16:35:40.909Z,8.13
2023-03-04T16:38:20.942Z,7.77
2023-03-04T16:40:49.538Z,8.77
2023-03-04T16:43:17.294Z,8.87
2023-03-04T16:45:45.463Z,9.20
2023-03-04T16:48:13.188Z,9.33
2023-03-04T16:50:43.245Z,9.50
2023-03-04T16:53:22.989Z,10.30
2023-03-04T16:55:50.811Z,10.33
2023-03-04T16:58:18.607Z,10.27
2023-03-04T17:00:46.422Z,11.37
2023-03-04T17:03:14.185Z,11.17
2023-03-04T17:05:44.293Z,11.47
2023-03-04T17:08:12.108Z,11.87
2023-03-04T17:10:39.984Z,12.63
2023-03-04T17:13:08.700Z,13.00
2023-03-04T17:15:36.739Z,12.43
2023-03-04T17:18:04.651Z,12.03
2023-03-04T17:20:32.332Z,13.17
2023-03-04T17:23:02.946Z,12.40
2023-03-04T17:25:30.670Z,11.67
2023-03-04T17:28:00.836Z,11.87
2023-03-04T17:30:28.615Z,11.63
2023-03-04T17:32:56.438Z,11.77
2023-03-04T17:35:25.690Z,11.83
2023-03-04T17:37:53.954Z,11.20
2023-03-04T17:40:23.110Z,12.57
2023-03-04T17:42:51.183Z,12.20
2023-03-04T17:45:19.052Z,13.03
2023-03-04T17:47:46.869Z,13.27
2023-03-04T17:50:14.684Z,13.20
2023-03-04T17:52:42.748Z,12.67
2023-03-04T17:55:11.273Z,14.07
2023-03-04T17:57:40.433Z,13.57
2023-03-04T18:00:10.052Z,14.60
2023-03-04T18:02:37.819Z,15.20
2023-03-04T18:05:07.508Z,14.73
2023-03-04T18:07:35.403Z,14.43
2023-03-04T18:10:03.176Z,15.00
2023-03-04T18:12:31.177Z,13.93
2023-03-04T18:15:00.548Z,14.50
2023-03-04T18:17:28.667Z,15.00
2023-03-04T18:19:56.689Z,14.60
2023-03-04T18:22:24.405Z,15.20
2023-03-04T18:24:52.405Z,15.90
2023-03-04T18:27:20.169Z,15.03
2023-03-04T18:29:47.928Z,15.80
2023-03-04T18:32:17.118Z,15.43
2023-03-04T18:34:45.834Z,15.17
2023-03-04T18:37:16.096Z,16.97
2023-03-04T18:39:43.936Z,17.60
2023-03-04T18:42:11.657Z,17.23
2023-03-04T18:44:39.681Z,17.10
2023-03-04T18:47:08.030Z,16.43
2023-03-04T18:49:37.284Z,16.57
2023-03-04T18:52:05.303Z,15.43
2023-03-04T18:54:33.144Z,15.50
2023-03-04T18:57:03.132Z,15.63
2023-03-04T18:59:33.308Z,15.00
2023-03-04T19:02:03.517Z,14.43
2023-03-04T19:04:31.455Z,14.83
2023-03-04T19:07:00.573Z,14.20
2023-03-04T19:12:01.901Z,15.33
2023-03-04T19:14:29.718Z,14.47
2023-03-04T19:16:57.619Z,15.33
2023-03-04T19:19:25.375Z,14.53
2023-03-04T19:21:53.073Z,15.27
2023-03-04T19:24:22.419Z,15.50
2023-03-04T19:26:50.157Z,15.07
2023-03-04T19:29:18.047Z,15.77
2023-03-04T19:31:45.745Z,15.40
2023-03-04T19:34:13.519Z,15.00
2023-03-04T19:36:41.361Z,15.73
2023-03-04T19:39:10.207Z,15.30
2023-03-04T19:41:41.168Z,15.57
2023-03-04T19:44:09.057Z,15.90
2023-03-04T19:46:36.893Z,16.10
2023-03-04T19:49:05.564Z,15.90
2023-03-04T19:51:33.983Z,16.70
2023-03-04T19:54:03.371Z,15.80
2023-03-04T19:56:31.166Z,16.37
2023-03-04T19:59:00.344Z,14.97
2023-03-04T20:01:29.960Z,17.20
2023-03-04T20:03:58.587Z,16.40
2023-03-04T20:06:27.208Z,15.80
2023-03-04T20:08:57.339Z,16.07
2023-03-04T20:11:27.315Z,16.87
2023-03-04T20:13:55.143Z,15.87
2023-03-04T20:16:24.248Z,16.60
2023-03-04T20:18:52.047Z,17.27
2023-03-04T20:21:20.015Z,17.17
2023-03-04T20:23:47.807Z,18.00
2023-03-04T20:26:15.558Z,17.73
2023-03-04T20:28:43.347Z,18.40
2023-03-04T20:31:13.005Z,19.83
2023-03-04T20:33:42.466Z,18.27
2023-03-04T20:36:10.357Z,19.20
2023-03-04T20:38:38.594Z,20.17
2023-03-04T20:41:06.928Z,19.77
2023-03-04T20:43:34.677Z,20.20
2023-03-04T20:46:27.984Z,21.87
2023-03-04T20:48:58.303Z,19.50
2023-03-04T20:51:26.407Z,20.47
2023-03-04T20:53:55.414Z,19.87
2023-03-04T20:56:23.484Z,21.33
2023-03-04T20:58:51.310Z,21.03
2023-03-04T21:01:19.342Z,21.30
2023-03-04T21:03:47.337Z,21.37
2023-03-04T21:06:17.041Z,21.93
2023-03-04T21:08:45.941Z,22.87
2023-03-04T21:11:14.239Z,21.40
2023-03-04T21:13:43.101Z,22.77
2023-03-04T21:16:15.511Z,22.23
2023-03-04T21:18:44.577Z,22.47
2023-03-04T21:21:14.448Z,23.10
2023-03-04T21:23:43.613Z,22.57
2023-03-04T21:26:11.372Z,24.37
2023-03-04T21:28:39.160Z,22.73
2023-03-04T21:31:07.450Z,21.90
2023-03-04T21:33:36.967Z,22.97
2023-03-04T21:36:05.266Z,23.30
2023-03-04T21:38:34.005Z,21.87
2023-03-04T21:41:03.151Z,21.60
2023-03-04T21:43:30.976Z,22.50
2023-03-04T21:45:59.463Z,22.90
2023-03-04T21:48:27.453Z,23.03
2023-03-04T21:51:00.131Z,23.37
2023-03-04T21:53:28.870Z,24.43
2023-03-04T21:55:56.629Z,23.00
2023-03-04T21:58:25.909Z,22.60
2023-03-04T22:00:53.978Z,24.00
2023-03-04T22:03:22.772Z,23.73
2023-03-04T22:05:50.644Z,24.03
2023-03-04T22:08:20.961Z,24.83
2023-03-04T22:10:49.345Z,24.93
2023-03-04T22:13:17.330Z,25.50
2023-03-04T22:15:47.693Z,26.67
2023-03-04T22:18:15.766Z,26.37
2023-03-04T22:20:45.185Z,27.27
2023-03-04T22:23:13.722Z,25.33
2023-03-04T22:25:42.692Z,25.83
2023-03-04T22:28:10.611Z,25.87
2023-03-04T22:30:38.467Z,24.13
2023-03-04T22:33:07.634Z,25.33
2023-03-04T22:35:35.555Z,25.10
2023-03-04T22:38:03.316Z,23.77
2023-03-04T22:40:31.125Z,24.80
2023-03-04T22:42:58.901Z,24.87
2023-03-04T22:45:28.294Z,25.10
2023-03-04T22:47:56.113Z,26.20
2023-03-04T22:50:25.589Z,26.73
2023-03-04T22:52:53.415Z,26.17
2023-03-04T22:55:22.809Z,26.60
2023-03-04T22:57:50.928Z,25.63
2023-03-04T23:00:21.587Z,25.40
2023-03-04T23:02:49.532Z,25.20
2023-03-04T23:05:18.545Z,24.50
2023-03-04T23:07:48.496Z,24.17
2023-03-04T23:10:18.302Z,24.37
2023-03-04T23:12:46.018Z,23.90
2023-03-04T23:15:15.630Z,24.13
2023-03-04T23:17:43.544Z,22.83
2023-03-04T23:20:13.612Z,25.37
2023-03-04T23:22:41.382Z,24.30
2023-03-04T23:25:11.165Z,24.80
2023-03-04T23:27:39.580Z,24.10
2023-03-04T23:30:09.304Z,24.73
2023-03-04T23:32:37.099Z,23.03
2023-03-04T23:35:05.441Z,23.10
2023-03-04T23:37:33.276Z,24.20
2023-03-04T23:40:01.081Z,23.50
2023-03-04T23:42:30.243Z,23.03
2023-03-04T23:44:57.973Z,23.50
2023-03-04T23:47:26.171Z,22.73
2023-03-04T23:49:54.203Z,23.70
2023-03-04T23:52:22.072Z,23.57
2023-03-04T23:54:49.899Z,23.03
2023-03-04T23:57:17.663Z,23.00
2023-03-04T23:59:46.797Z,23.47
